Time;durP1;ratioP1;P1;durP2;ratioP2;P2;SDS_P1;SDS_P2;PMS_P1;PMS_P2;Temp;Humidity;BMP_temperature;BMP_pressure;BME280_temperature;BME280_humidity;BME280_pressure;Samples;Min_cycle;Max_cycle;Signal;HPM_P1;HPM_P2
2023/01/13 00:08:48;;;;;;;2.93;1.60;;;;;;;7.56;70.34;99650.78;30747909;28;96617;-74
2023/01/13 00:23:52;;;;;;;4.53;1.63;;;;;;;7.54;70.44;99648.31;30746884;28;96731;-70
2023/01/13 00:38:53;;;;;;;2.30;1.40;;;;;;;7.60;70.63;99646.84;30745912;28;96927;-71
2023/01/13 00:53:53;;;;;;;4.50;1.63;;;;;;;7.69;70.79;99635.22;30743978;28;97380;-73
2023/01/13 01:08:55;;;;;;;3.20;1.17;;;;;;;7.68;70.83;99636.25;30742614;28;97233;-71
2023/01/13 01:23:58;;;;;;;2.07;1.30;;;;;;;7.65;71.09;99617.19;30741114;28;96632;-74
2023/01/13 01:38:59;;;;;;;2.67;1.63;;;;;;;7.67;71.19;99584.22;30739249;28;97364;-73
2023/01/13 01:54:03;;;;;;;3.13;1.45;;;;;;;7.72;70.71;99571.28;30738311;28;96636;-66
2023/01/13 02:09:04;;;;;;;2.50;1.23;;;;;;;7.65;70.33;99554.38;30736969;28;96707;-74
2023/01/13 02:39:34;;;;;;;1.77;1.00;;;;;;;7.86;70.40;99555.69;30731539;28;96751;-72
2023/01/13 02:54:38;;;;;;;1.50;0.90;;;;;;;8.08;69.03;99554.97;30733020;28;96651;-67
2023/01/13 03:09:44;;;;;;;2.90;1.00;;;;;;;8.11;68.28;99565.25;30731518;28;97339;-74
2023/01/13 03:25:08;;;;;;;2.63;1.00;;;;;;;8.04;68.83;99543.06;30731292;28;96698;-67
2023/01/13 03:40:16;;;;;;;1.77;1.00;;;;;;;7.93;68.72;99535.47;30729786;28;96730;-70
2023/01/13 03:55:32;;;;;;;2.40;1.20;;;;;;;7.88;68.99;99528.00;30737694;28;97301;-74
2023/01/13 04:10:50;;;;;;;1.70;0.90;;;;;;;7.90;68.76;99533.13;30747024;28;96750;-74
2023/01/13 04:25:51;;;;;;;5.53;1.73;;;;;;;7.85;68.44;99531.00;30746148;28;96554;-70
2023/01/13 04:40:51;;;;;;;1.85;1.15;;;;;;;7.84;69.24;99515.25;30742659;28;97403;-71
2023/01/13 04:55:52;;;;;;;1.52;1.20;;;;;;;7.89;68.46;99502.31;30738964;28;96820;-66
2023/01/13 05:10:52;;;;;;;0.98;0.88;;;;;;;7.92;68.87;99501.97;30738423;28;97392;-67
2023/01/13 05:25:52;;;;;;;4.40;1.25;;;;;;;7.96;68.82;99506.75;30733366;28;97210;-64
2023/01/13 05:56:12;;;;;;;7.23;1.23;;;;;;;7.89;68.65;99502.31;30731392;28;96982;-63
2023/01/13 06:11:12;;;;;;;2.85;1.20;;;;;;;7.91;68.41;99509.13;30731271;28;97064;-63
2023/01/13 06:26:20;;;;;;;1.00;0.90;;;;;;;7.94;68.43;99510.56;30731086;28;96640;-64
2023/01/13 06:43:13;;;;;;;1.87;0.80;;;;;;;7.98;68.54;99511.88;30727830;28;96611;-64
2023/01/13 06:56:41;;;;;;;0.93;0.70;;;;;;;8.01;68.70;99511.56;30725059;28;97493;-67
2023/01/13 07:11:41;;;;;;;1.90;1.08;;;;;;;8.05;68.52;99514.69;30724298;28;96880;-68
2023/01/13 07:26:42;;;;;;;1.55;0.95;;;;;;;8.08;68.84;99512.53;30732174;28;97381;-70
2023/01/13 07:57:01;;;;;;;1.07;0.80;;;;;;;8.19;68.51;99508.69;30739939;28;97009;-70
2023/01/13 08:27:20;;;;;;;5.27;1.20;;;;;;;8.54;67.80;99521.69;30739504;28;96985;-72
2023/01/13 08:42:22;;;;;;;2.53;1.03;;;;;;;8.79;67.30;99517.06;30738991;28;97183;-69
2023/01/13 08:57:22;;;;;;;1.77;0.80;;;;;;;8.74;67.17;99533.50;30737908;28;97177;-71
2023/01/13 09:27:42;;;;;;;1.93;0.80;;;;;;;8.93;66.95;99545.53;30737160;28;97245;-72
2023/01/13 09:58:12;;;;;;;;;;;;;;;8.71;68.07;99539.19;30749693;28;97012;-71
2023/01/13 10:13:18;;;;;;;4.00;1.20;;;;;;;8.80;68.86;99505.44;30812014;28;98468;-67
2023/01/13 10:28:22;;;;;;;2.10;1.10;;;;;;;11.73;65.85;99500.59;30850915;28;96610;-65
2023/01/13 10:43:24;;;;;;;3.70;1.60;;;;;;;12.16;61.39;99487.97;30848250;28;96769;-66
2023/01/13 10:58:25;;;;;;;5.80;2.20;;;;;;;11.23;63.29;99474.78;30780542;28;97371;-66
2023/01/13 11:14:31;;;;;;;2.43;0.97;;;;;;;10.38;63.80;99482.53;30749409;28;96680;-66
2023/01/13 11:29:14;;;;;;;3.43;1.17;;;;;;;11.30;61.24;99469.53;30748332;28;96969;-65
2023/01/13 11:44:21;;;;;;;2.33;1.03;;;;;;;12.27;58.68;99469.75;30756179;28;97100;-69
2023/01/13 12:00:09;;;;;;;4.47;1.53;;;;;;;10.60;61.11;99464.75;30751724;28;97286;-63
2023/01/13 12:15:32;;;;;;;1.63;0.80;;;;;;;10.15;62.65;99462.13;30731853;28;97509;-65
2023/01/13 12:30:43;;;;;;;4.10;1.50;;;;;;;10.15;63.56;99450.69;30731908;28;97207;-69
2023/01/13 12:45:43;;;;;;;2.37;1.43;;;;;;;11.41;61.30;99433.50;30786874;28;97433;-71
2023/01/13 13:00:44;;;;;;;2.88;1.75;;;;;;;11.38;59.49;99448.03;30822004;28;96783;-68
2023/01/13 13:15:47;;;;;;;1.63;0.98;;;;;;;10.80;60.53;99486.28;30741831;28;97179;-68
2023/01/13 13:31:01;;;;;;;2.67;1.57;;;;;;;10.19;62.27;99488.41;30758305;28;98403;-68
2023/01/13 14:01:36;;;;;;;5.00;2.10;;;;;;;9.78;63.48;99498.47;30734003;28;96969;-68
2023/01/13 14:16:39;;;;;;;6.80;2.90;;;;;;;9.69;63.99;99520.03;30719768;28;97070;-68
2023/01/13 14:31:41;;;;;;;8.37;2.30;;;;;;;9.58;64.43;99529.25;30729089;28;97742;-66
2023/01/13 14:46:43;;;;;;;4.50;2.33;;;;;;;9.45;64.72;99551.97;30728697;28;96780;-67
2023/01/13 15:01:44;;;;;;;7.00;1.93;;;;;;;9.36;66.17;99584.13;30710977;28;96981;-67
2023/01/13 15:16:44;;;;;;;4.78;2.83;;;;;;;9.00;67.44;99595.31;30690466;28;96955;-66
2023/01/13 15:31:45;;;;;;;4.25;3.45;;;;;;;8.48;68.72;99596.72;30689547;28;96952;-66
2023/01/13 15:46:45;;;;;;;7.30;3.90;;;;;;;8.28;69.99;99602.34;30704371;28;97427;-66
2023/01/13 16:01:45;;;;;;;7.75;4.60;;;;;;;8.10;70.89;99590.13;30751599;28;96758;-65
2023/01/13 16:16:46;;;;;;;14.57;6.20;;;;;;;7.93;72.61;99604.41;30845635;28;96676;-66
2023/01/13 16:31:46;;;;;;;10.38;7.88;;;;;;;7.75;73.50;99645.19;30850361;28;96715;-67
2023/01/13 16:46:47;;;;;;;12.38;7.95;;;;;;;7.31;73.50;99648.09;30856467;28;96633;-67
2023/01/13 17:01:47;;;;;;;10.35;7.13;;;;;;;7.17;75.28;99659.34;30828794;28;97626;-67
2023/01/13 17:16:53;;;;;;;11.65;8.23;;;;;;;6.95;75.92;99674.81;30784542;28;97192;-70
2023/01/13 17:31:54;;;;;;;21.23;10.53;;;;;;;6.82;76.48;99672.63;30793730;28;96765;-67
2023/01/13 17:46:54;;;;;;;12.45;7.90;;;;;;;6.79;76.87;99691.47;30795033;28;96821;-70
2023/01/13 18:01:55;;;;;;;9.88;6.90;;;;;;;6.74;76.59;99707.81;30789572;28;96779;-69
2023/01/13 18:16:55;;;;;;;15.23;7.15;;;;;;;6.80;76.68;99710.84;30756921;28;98256;-69
2023/01/13 18:31:55;;;;;;;15.05;10.45;;;;;;;6.70;76.77;99719.72;30849498;28;96958;-69
2023/01/13 18:46:56;;;;;;;11.50;6.82;;;;;;;6.78;76.54;99733.00;30801714;28;96674;-69
2023/01/13 19:01:57;;;;;;;16.27;7.97;;;;;;;6.58;76.26;99745.59;30719067;28;96767;-68
2023/01/13 19:16:57;;;;;;;14.98;9.18;;;;;;;6.36;76.29;99778.69;30718051;28;97492;-69
2023/01/13 19:31:57;;;;;;;19.05;9.35;;;;;;;6.41;76.89;99794.94;30743925;28;98145;-69
2023/01/13 19:46:58;;;;;;;17.25;8.40;;;;;;;6.15;77.41;99783.47;30778948;28;97120;-68
2023/01/13 20:02:00;;;;;;;13.82;7.10;;;;;;;5.97;77.93;99804.59;30735971;28;97376;-68
2023/01/13 20:17:00;;;;;;;10.65;7.15;;;;;;;5.83;77.06;99827.09;30736861;28;96956;-69
2023/01/13 20:32:01;;;;;;;9.50;5.65;;;;;;;5.67;77.29;99841.78;30735402;28;97332;-67
2023/01/13 20:47:02;;;;;;;9.15;3.75;;;;;;;5.46;76.91;99849.94;30730746;28;96776;-69
2023/01/13 21:02:04;;;;;;;4.13;2.47;;;;;;;5.15;76.87;99870.47;30730853;28;97571;-68
2023/01/13 21:17:06;;;;;;;8.65;3.60;;;;;;;4.88;77.19;99901.06;30729664;28;97016;-67
2023/01/13 21:32:06;;;;;;;5.85;2.55;;;;;;;5.09;76.59;99912.31;30729051;28;96763;-67
2023/01/13 22:02:36;;;;;;;5.30;3.00;;;;;;;4.89;75.79;99918.59;30726878;28;97445;-66
2023/01/13 22:17:37;;;;;;;6.97;2.53;;;;;;;4.94;75.15;99932.19;30726671;28;97067;-66
2023/01/13 22:32:37;;;;;;;6.20;2.75;;;;;;;5.14;74.85;99948.88;30724233;28;97194;-67
2023/01/13 22:47:38;;;;;;;5.38;2.50;;;;;;;5.26;74.26;99960.09;30723367;28;96769;-66
2023/01/13 23:02:38;;;;;;;5.88;1.92;;;;;;;5.52;73.10;99967.41;30738113;28;97554;-63
2023/01/13 23:17:39;;;;;;;5.78;1.92;;;;;;;5.41;72.31;99977.19;30857896;28;97383;-66
2023/01/13 23:32:39;;;;;;;3.67;1.60;;;;;;;5.05;71.90;99986.66;30863855;28;96734;-67
2023/01/13 23:47:40;;;;;;;3.42;2.08;;;;;;;4.92;72.32;99981.66;30796180;28;97160;-67
